Tiempo atmosférico en la estación meteorológica de Puertollano, Ciudad Real (700 m.)



Fecha
DESCASC
Temp. máxima en grados centígrados (hora)
DESCASC
Temp. mínima en grados centígrados (hora)
DESCASC
Temp. media en grados centígrados
DESCASC
Racha de viento máxima en m/sg (hora)
DESCASC
Velocidad máxima media en intervalos de 10 minutos(hora)
DESCASC
Precipitaciones diarias en mm
DESCASC
Precipitaciones de 00:00 a 06:00 en mm
DESCASC
Precipitaciones de 06:00 a 12:00 en mm
DESCASC
Precipitaciones de 12:00 a 18:00 en mm
DESCASC
Precipitaciones de 18:00 a 24:00 en mm
DESCASC
23-06-2019 35.7 (18:00) 19.3 (07:30) 27.5 8.89 (17:40) 4.17 (15:40) 0 0 0 0 0
22-06-2019 33.7 (18:40) 14.5 (07:30) 24.1 8.33 (14:00) 3.89 (19:20) 0 0 0 0 0
21-06-2019 30.2 (19:00) 15.3 (07:30) 22.8 7.78 (15:10) 4.44 (14:40) 0 0 0 0 0
20-06-2019 30 (16:20) 15.4 (00:00) 22.7 9.17 (17:40) 3.61 (17:40) 0 0 0 0 0
19-06-2019 -- (--) -- (--) -- -- (--) -- (--) -- 0 0 -- 0
18-06-2019 -- (--) -- (--) -- -- (--) -- (--) -- 0 0 0 --
17-06-2019 32.4 (18:20) 13.5 (00:00) 23 8.89 (15:40) 4.72 (15:40) 0 0 0 0 0
16-06-2019 30.4 (15:30) 11.8 (00:00) 21.1 7.22 (18:50) 3.89 (17:10) 0 0 0 0 0
15-06-2019 26.6 (20:10) 11.1 (00:00) 18.9 6.67 (15:20) 3.33 (17:50) 0 0 0 0 0
14-06-2019 25.9 (17:30) 13.9 (00:00) 19.9 10.56 (14:50) 5 (14:00) 0 0 0 0 0
13-06-2019 29.5 (17:40) 15.5 (00:00) 22.5 7.78 (18:40) 3.89 (16:40) 0 0 0 0 0
12-06-2019 28.8 (18:30) 10.3 (00:00) 19.5 8.89 (01:00) 4.17 (00:30) 0 0 0 0 0
11-06-2019 25.4 (16:40) 13.2 (00:00) 19.3 11.39 (18:00) 5.83 (18:10) 0 0 0 0 0
10-06-2019 27.1 (17:30) 12.8 (00:00) 20 8.33 (18:00) 3.89 (15:20) 0 0 0 0 0
09-06-2019 27.8 (18:00) 15.1 (00:00) 21.4 10.56 (20:50) 4.72 (16:50) 0 0 0 0 0
08-06-2019 30 (18:10) 10.2 (00:00) 20.1 8.61 (15:30) 4.72 (15:30) 0 0 0 0 0
07-06-2019 24.4 (18:40) 11.3 (00:00) 17.8 9.72 (05:50) 5 (06:10) 0 0 0 0 0
06-06-2019 27 (18:20) 10.5 (00:00) 18.8 10.83 (19:00) 5.28 (19:00) 0 0 0 0 0
05-06-2019 21.6 (19:30) 10.7 (00:00) 16.2 11.11 (12:20) 5 (14:00) 0 0 0 0 0
04-06-2019 31.3 (16:10) 16.8 (00:00) 24 10.28 (14:50) 5.83 (14:50) 0 0 0 0 0
03-06-2019 35.2 (17:00) 18.7 (00:00) 27 12.22 (14:40) 4.72 (18:10) 0 0 0 0 0
02-06-2019 34.6 (18:50) 16.3 (00:00) 25.4 6.39 (19:40) 3.61 (00:10) 0 0 0 0 0
01-06-2019 32.8 (17:00) 15.6 (00:00) 24.2 10 (19:40) 4.17 (22:10) 0 0 0 0 0
31-05-2019 31.8 (19:00) 16.1 (00:00) 23.9 8.61 (12:40) 4.72 (22:30) 0 0 0 0 0
30-05-2019 30.7 (18:10) 13.2 (00:00) 22 9.72 (02:10) 4.72 (22:50) 0 0 0 0 0
29-05-2019 27.4 (18:40) 14.2 (00:00) 20.8 14.17 (02:20) 6.94 (00:40) 0 0 0 0 0
28-05-2019 30.5 (16:50) 17.4 (00:00) 23.9 11.94 (23:59) 5 (23:30) 0 0 0 0 0
27-05-2019 30.4 (17:40) 13 (00:00) 21.7 9.44 (17:20) 4.44 (17:20) 0 0 0 0 0

Gráficas

Temp. máximas Temp. mínimas Temp. medias Precipitaciones Rachas de viento máximas Velocidades máximas media en intervalos de 10 minutos

Datos horarios

Fecha y hora oficial Temperatura (ºC) Velocidad del viento (km/h) Dirección del viento Racha (km/h) Dirección de racha Precipitación (mm) Presión (hPa) Tendencia (hPa) Humedad (%)
2019-06-25 23:00:00 28.8 3 Noroeste 14 Sudoeste 0 -- -- 33
2019-06-25 22:00:00 31.2 6 Sudoeste 18 Sudoeste 0 -- -- 30
2019-06-25 21:00:00 33.6 8 Sudoeste 24 Sudoeste 0 -- -- 27
2019-06-25 20:00:00 35.3 11 Sudoeste 26 Sudoeste 0 -- -- 25
2019-06-25 19:00:00 36 12 Sudoeste 32 Sudoeste 0 -- -- 24
2019-06-25 18:00:00 36 10 Sur 23 Sur 0 -- -- 23
2019-06-25 17:00:00 35.5 12 Sudoeste 29 Sur 0 -- -- 24
2019-06-25 16:00:00 34.7 9 Sudoeste 26 Sudoeste 0 -- -- 23
2019-06-25 15:00:00 33.7 13 Sudoeste 24 Sudoeste 0 -- -- 26
2019-06-25 14:00:00 32.5 8 Sudoeste 25 Sudoeste 0 -- -- 30
2019-06-25 13:00:00 30.6 9 Sudoeste 23 Sur 0 -- -- 35
2019-06-25 12:00:00 28.5 8 Sudeste 19 Sur 0 -- -- 39
2019-06-25 11:00:00 25.9 8 Este 16 Este 0 -- -- 48
2019-06-25 10:00:00 24.4 6 Este 13 Este 0 -- -- 54
2019-06-25 09:00:00 20.6 3 Sudoeste 6 Sudoeste 0 -- -- 63
2019-06-25 08:00:00 19.1 3 Noroeste 6 Noroeste 0 -- -- 67
2019-06-25 07:00:00 18.5 4 Noroeste 10 Noroeste 0 -- -- 69
2019-06-25 06:00:00 18.5 4 Oeste 9 Noroeste 0 -- -- 65
2019-06-25 05:00:00 20.1 5 Noroeste 9 Oeste 0 -- -- 64
2019-06-25 04:00:00 20.5 4 Noroeste 8 Noroeste 0 -- -- 61
2019-06-25 03:00:00 22.1 5 Oeste 9 Noroeste 0 -- -- 52
2019-06-25 02:00:00 24 4 Sudoeste 8 Oeste 0 -- -- 46
2019-06-25 01:00:00 24.4 2 Oeste 12 Sur 0 -- -- 43
2019-06-25 00:00:00 25.3 5 Noroeste 11 Oeste 0 -- -- 41
2019-06-24 23:00:00 25.9 4 Noroeste 12 Sudoeste 0 -- -- 38
2019-06-24 22:00:00 27.7 7 Sudoeste 20 Sudoeste 0 -- -- 36
2019-06-24 21:00:00 29.9 11 Sudoeste 23 Sudoeste 0 -- -- 32
2019-06-24 20:00:00 32.3 12 Sudoeste 24 Sur 0 -- -- 28
2019-06-24 19:00:00 32.8 13 Sudoeste 23 Sudoeste 0 -- -- 29
2019-06-24 18:00:00 32.4 11 Sudoeste 27 Sudoeste 0 -- -- 30
2019-06-24 17:00:00 32.7 9 Oeste 25 Sudoeste 0 -- -- 29
2019-06-24 16:00:00 32 11 Oeste 25 Oeste 0 -- -- 29
2019-06-24 15:00:00 30.4 8 Sudoeste 22 Sudoeste 0 -- -- 33
2019-06-24 14:00:00 30.3 7 Sur 20 Noroeste 0 -- -- 31
2019-06-24 13:00:00 28.7 8 Sudoeste 17 Oeste 0 -- -- 32
2019-06-24 12:00:00 27.1 5 Sudoeste 13 Sudoeste 0 -- -- 34
2019-06-24 11:00:00 25.2 3 Sur 10 Sudoeste 0 -- -- 36
2019-06-24 10:00:00 23.5 4 Sudoeste 10 Oeste 0 -- -- 38
2019-06-24 09:00:00 22.2 6 Noroeste 11 Noroeste 0 -- -- 40
2019-06-24 08:00:00 21.1 6 Noroeste 10 Noroeste 0 -- -- 37
2019-06-24 07:00:00 20.6 4 Noroeste 11 Oeste 0 -- -- 37
2019-06-24 06:00:00 21.1 3 Noroeste 8 Norte 0 -- -- 37
2019-06-24 05:00:00 22.1 3 Noroeste 11 Noroeste 0 -- -- 36
2019-06-24 04:00:00 22.2 6 Noroeste 13 Noroeste 0 -- -- 38
2019-06-24 03:00:00 23.3 5 Noroeste 8 Noroeste 0 -- -- 39
2019-06-24 02:00:00 24.3 3 Noroeste 9 Oeste 0 -- -- 38
2019-06-24 01:00:00 25.2 5 Noroeste 15 Sudoeste 0 -- -- 36
2019-06-24 00:00:00 26.2 2 Oeste 12 Oeste 0 -- -- 31
2019-06-23 23:00:00 28 4 Noroeste 13 Noroeste 0 -- -- 28
2019-06-23 22:00:00 29.8 6 Oeste 13 Oeste 0 -- -- 24
2019-06-23 21:00:00 31.3 7 Oeste 25 Oeste 0 -- -- 23
2019-06-23 20:00:00 32.8 10 Oeste 24 Oeste 0 -- -- 23
2019-06-23 19:00:00 34.9 9 Oeste 31 Sur 0 -- -- 21
2019-06-23 18:00:00 35.7 12 Sudoeste 32 Oeste 0 -- -- 22
2019-06-23 17:00:00 35.2 10 Sudoeste 29 Sudoeste 0 -- -- 22
2019-06-23 16:00:00 34.7 14 Sudoeste 30 Sudoeste 0 -- -- 23
2019-06-23 15:00:00 34 12 Sur 27 Sudoeste 0 -- -- 24
2019-06-23 14:00:00 32.5 11 Sudoeste 24 Sur 0 -- -- 26
2019-06-23 13:00:00 30.6 6 Sudoeste 25 Sur 0 -- -- 30
2019-06-23 12:00:00 28.7 8 Sudeste 17 Este 0 -- -- 34
2019-06-23 11:00:00 27.3 4 Sur 10 Sur 0 -- -- 35
2019-06-23 10:00:00 25.1 3 Sudoeste 7 Sur 0 -- -- 37
2019-06-23 09:00:00 21.9 2 Sudoeste 7 Sudoeste 0 -- -- 42
2019-06-23 08:00:00 19.6 2 Sudoeste 5 Noroeste 0 -- -- 43
2019-06-23 07:00:00 19.5 4 Noroeste 7 Noroeste 0 -- -- 43
2019-06-23 06:00:00 19.9 3 Noroeste 7 Noroeste 0 -- -- 40
2019-06-23 05:00:00 20.6 5 Noroeste 11 Noroeste 0 -- -- 37
2019-06-23 04:00:00 21.5 5 Noroeste 9 Oeste 0 -- -- 34
2019-06-23 03:00:00 21.6 2 Oeste 6 Noroeste 0 -- -- 35
2019-06-23 02:00:00 23.1 3 Noroeste 6 Noroeste 0 -- -- 31
2019-06-23 01:00:00 24.3 4 Noroeste 6 Norte 0 -- -- 29
2019-06-23 00:00:00 25.1 2 Noroeste 6 Norte 0 -- -- 31
2019-06-22 23:00:00 26.5 3 Noroeste 9 Noroeste 0 -- -- 26
2019-06-22 22:00:00 28.5 4 Sudoeste 17 Sudoeste 0 -- -- 22
2019-06-22 21:00:00 31.6 9 Sudoeste 23 Sur 0 -- -- 20
2019-06-22 20:00:00 32.8 11 Sudoeste 25 Sur 0 -- -- 20
2019-06-22 19:00:00 33.6 4 Oeste 27 Sudoeste 0 -- -- 20
2019-06-22 18:00:00 33.5 8 Sur 26 Sudoeste 0 -- -- 21
2019-06-22 17:00:00 32.4 12 Sur 28 Sur 0 -- -- 23
2019-06-22 16:00:00 32.4 9 Sudoeste 25 Sudoeste 0 -- -- 22
2019-06-22 15:00:00 31.1 6 Oeste 25 Sudoeste 0 -- -- 24
2019-06-22 14:00:00 31 13 Sudoeste 30 Sudoeste 0 -- -- 23
2019-06-22 13:00:00 30.1 8 Sudoeste 24 Sudeste 0 -- -- 26
2019-06-22 12:00:00 28.1 10 Sudeste 23 Sudeste 0 -- -- 28
2019-06-22 11:00:00 26 5 Sudoeste 10 Oeste 0 -- -- 34
2019-06-22 10:00:00 23.2 3 Noroeste 6 Noroeste 0 -- -- 40
2019-06-22 09:00:00 19.3 4 Sudoeste 6 Sudoeste 0 -- -- 45
2019-06-22 08:00:00 16.1 3 Sudoeste 8 Sudoeste 0 -- -- 50
2019-06-22 07:00:00 15 4 Noroeste 8 Noroeste 0 -- -- 49
2019-06-22 06:00:00 15.9 5 Sudoeste 7 Sudoeste 0 -- -- 44
2019-06-22 05:00:00 16.4 2 Oeste 6 Sudoeste 0 -- -- 43
2019-06-22 04:00:00 18.3 2 Oeste 9 Noroeste 0 -- -- 43
2019-06-22 03:00:00 18.8 4 Oeste 9 Noroeste 0 -- -- 39
2019-06-22 02:00:00 20.1 0 Calma 6 Noroeste 0 -- -- 37
2019-06-22 01:00:00 21.4 4 Noroeste 7 Noroeste 0 -- -- 34
2019-06-22 00:00:00 22.6 3 Noroeste 11 Sudoeste 0 -- -- 33
2019-06-21 23:00:00 24.2 6 Sudoeste 14 Noroeste 0 -- -- 32
2019-06-21 22:00:00 25.6 6 Noroeste 18 Noroeste 0 -- -- 28
2019-06-21 21:00:00 28 8 Noroeste 22 Noroeste 0 -- -- 26
2019-06-21 20:00:00 29.7 8 Oeste 23 Norte 0 -- -- 22
2019-06-21 19:00:00 30.2 8 Oeste 22 Noroeste 0 -- -- 20
2019-06-21 18:00:00 29.3 6 Noroeste 21 Oeste 0 -- -- 21
2019-06-21 17:00:00 29.7 6 Sudoeste 23 Oeste 0 -- -- 23
2019-06-21 16:00:00 28.6 9 Oeste 28 Noroeste 0 -- -- 25
2019-06-21 15:00:00 27.5 13 Oeste 27 Noroeste 0 -- -- 28
2019-06-21 14:00:00 26.6 10 Noroeste 27 Oeste 0 -- -- 33
2019-06-21 13:00:00 25.8 8 Oeste 21 Noroeste 0 -- -- 35
2019-06-21 12:00:00 24.8 7 Sudoeste 25 Sudoeste 0 -- -- 42
2019-06-21 11:00:00 22.8 9 Sudoeste 20 Sudoeste 0 -- -- 46
2019-06-21 10:00:00 20.2 3 Noroeste 9 Noroeste 0 -- -- 56
2019-06-21 09:00:00 18.1 5 Sudoeste 12 Oeste 0 -- -- 62
2019-06-21 08:00:00 15.5 5 Noroeste 10 Oeste 0 -- -- 70
2019-06-21 07:00:00 15.4 7 Noroeste 12 Noroeste 0 -- -- 70
2019-06-21 06:00:00 15.9 3 Noroeste 13 Oeste 0 -- -- 67
2019-06-21 05:00:00 17 4 Oeste 16 Sudoeste 0 -- -- 63
2019-06-21 04:00:00 18.3 6 Oeste 20 Oeste 0 -- -- 59
2019-06-21 03:00:00 19.2 8 Oeste 15 Oeste 0 -- -- 55
2019-06-21 02:00:00 19.7 3 Oeste 10 Oeste 0 -- -- 52
2019-06-21 01:00:00 20.5 4 Noroeste 16 Sudoeste 0 -- -- 52
2019-06-21 00:00:00 22.1 7 Sudoeste 19 Oeste 0 -- -- 50
2019-06-20 23:00:00 23.3 5 Oeste 21 Noroeste 0 -- -- 48
2019-06-20 22:00:00 25.5 8 Sudoeste 19 Noroeste 0 -- -- 41
2019-06-20 21:00:00 27.2 8 Oeste 24 Sudoeste 0 -- -- 34
2019-06-20 20:00:00 28.7 11 Sudoeste 25 Oeste 0 -- -- 33
2019-06-20 19:00:00 29.3 13 Oeste 27 Oeste 0 -- -- 33
2019-06-20 18:00:00 28.8 11 Oeste 33 Oeste 0 -- -- 33
2019-06-20 17:00:00 29 8 Oeste 25 Noroeste 0 -- -- 33
2019-06-20 16:00:00 29.3 9 Oeste 27 Sudoeste 0 -- -- 33
2019-06-20 15:00:00 27.2 8 Noroeste 19 Oeste 0 -- -- 38
2019-06-20 14:00:00 27.5 9 Noroeste 18 Noroeste 0 -- -- 37
2019-06-20 13:00:00 26.5 8 Sudoeste 21 Oeste 0 -- -- 40
2019-06-20 12:00:00 25.1 4 Sudoeste 13 Sudoeste 0 -- -- 46
2019-06-20 11:00:00 23 4 Norte 13 Oeste 0 -- -- 51
2019-06-20 10:00:00 21.3 6 Noroeste 14 Noroeste 0 -- -- 56
2019-06-20 09:00:00 19.3 4 Oeste 12 Oeste 0 -- -- 64
2019-06-20 08:00:00 16 4 Noroeste 8 Oeste 0 -- -- 66
2019-06-20 07:00:00 15.7 3 Oeste 7 Oeste 0 -- -- 66
2019-06-20 06:00:00 16.4 5 Oeste 8 Oeste 0 -- -- 64
2019-06-20 05:00:00 16.9 3 Noroeste 8 Oeste 0 -- -- 62
2019-06-20 04:00:00 17.8 4 Noroeste 9 Noroeste 0 -- -- 60
2019-06-20 03:00:00 18.4 3 Oeste 8 Oeste 0 -- -- 58
2019-06-20 02:00:00 19.5 4 Noroeste 6 Oeste 0 -- -- 55
2019-06-20 01:00:00 21 5 Sudoeste 12 Sudoeste 0 -- -- 50
2019-06-20 00:00:00 21.8 5 Oeste 19 Noroeste 0 -- -- 49
2019-06-19 23:00:00 22.9 10 Noroeste 21 Norte 0 -- -- 46
2019-06-19 22:00:00 24.1 15 Noroeste 27 Noroeste 0 -- -- 43
2019-06-19 21:00:00 26.6 12 Noroeste 27 Noroeste 0 -- -- 37
2019-06-19 20:00:00 28 13 Noroeste 27 Norte 0 -- -- 34
2019-06-19 19:00:00 28.6 13 Noroeste 28 Noroeste 0 -- -- 34
2019-06-19 18:00:00 29.4 9 Oeste 29 Oeste 0 -- -- 33
2019-06-19 17:00:00 28.9 14 Noroeste 31 Noroeste 0 -- -- 33
2019-06-19 16:00:00 28.3 12 Oeste 27 Noroeste 0 -- -- 35
2019-06-19 15:00:00 28 9 Oeste -- -- -- -- -- 35
2019-06-19 14:00:00 -- -- -- -- -- -- -- -- --
2019-06-19 13:00:00 25.6 10 Sudoeste 20 Sur 0 -- -- 45
2019-06-19 12:00:00 23.9 9 Sudoeste 21 Sudoeste 0 -- -- 49
2019-06-19 11:00:00 21.5 8 Sudoeste 18 Sudoeste 0 -- -- 56
2019-06-19 10:00:00 19.8 6 Oeste 17 Sudoeste 0 -- -- 61
2019-06-19 09:00:00 18.5 6 Oeste 15 Oeste 0 -- -- 67
2019-06-19 08:00:00 16.3 5 Oeste 10 Oeste 0 -- -- 78
2019-06-19 07:00:00 15.7 3 Noroeste 9 Noroeste 0 -- -- 76
2019-06-19 06:00:00 16.5 4 Noroeste 8 Noroeste 0 -- -- 71
2019-06-19 05:00:00 17.8 5 Noroeste 8 Noroeste 0 -- -- 68
2019-06-19 04:00:00 18.4 5 Noroeste 8 Noroeste 0 -- -- 65
2019-06-19 03:00:00 19.2 5 Noroeste 12 Oeste 0 -- -- 63
2019-06-19 02:00:00 19.7 3 Noroeste 13 Oeste 0 -- -- 57
2019-06-19 01:00:00 20.7 4 Oeste 16 Sudoeste 0 -- -- 49
2019-06-19 00:00:00 21.6 4 Oeste 9 Oeste 0 -- -- 40
2019-06-18 23:00:00 23.3 5 Sudoeste 12 Sudoeste 0 -- -- 35
2019-06-18 22:00:00 24.9 9 Sudoeste 30 Sudoeste 0 -- -- 26
2019-06-18 21:00:00 -- -- -- -- -- -- -- -- --
2019-06-18 20:00:00 29.2 15 Sudoeste 33 Sudoeste 0 -- -- 19
2019-06-18 19:00:00 30.2 14 Sudoeste 36 Sudoeste 0 -- -- 19
2019-06-18 18:00:00 30.7 19 Sudoeste 38 Sudoeste 0 -- -- 18
2019-06-18 17:00:00 31 18 Sudoeste 39 Sudoeste 0 -- -- 21
2019-06-18 16:00:00 30.3 16 Sudoeste 47 Sudoeste 0 -- -- 23
2019-06-18 15:00:00 29.9 19 Sudoeste 36 Sur 0 -- -- 24
2019-06-18 14:00:00 29.3 16 Sudoeste 32 Sudoeste 0 -- -- 24
2019-06-18 13:00:00 27.8 13 Sudoeste 28 Sudoeste 0 -- -- 29
2019-06-18 12:00:00 26.9 8 Sudoeste 28 Sudoeste -- -- -- 30
2019-06-18 11:00:00 25.5 13 Sudoeste 29 Sudoeste 0 -- -- 32
2019-06-18 10:00:00 23.5 5 Sur 12 Este 0 -- -- 37
2019-06-18 09:00:00 21 3 Sudoeste 5 Sudoeste 0 -- -- 42
2019-06-18 08:00:00 18.1 2 Sudoeste 5 Sudoeste 0 -- -- 45
2019-06-18 07:00:00 17.9 2 Oeste 5 Sur 0 -- -- 43
2019-06-18 06:00:00 19.7 4 Oeste 9 Sudoeste 0 -- -- 43
2019-06-18 05:00:00 19.6 4 Sudoeste 10 Sudoeste 0 -- -- 37
2019-06-18 04:00:00 20.3 6 Oeste 9 Oeste 0 -- -- 32
2019-06-18 03:00:00 20.8 2 Noroeste 7 Oeste 0 -- -- 31
2019-06-18 02:00:00 22 3 Noroeste 8 Noroeste 0 -- -- 28
2019-06-18 01:00:00 22.8 3 Noroeste 6 Noroeste 0 -- -- 30
2019-06-18 00:00:00 23.8 4 Noroeste 11 Sudoeste 0 -- -- 25
2019-06-17 23:00:00 25 3 Noroeste 12 Oeste 0 -- -- 23
2019-06-17 22:00:00 27.3 5 Sudoeste 17 Sudoeste 0 -- -- 23
2019-06-17 21:00:00 28.7 8 Sudoeste 20 Sudoeste 0 -- -- 20
2019-06-17 20:00:00 31.5 13 Sudoeste 23 Sudoeste 0 -- -- 18
2019-06-17 19:00:00 31.9 10 Sudoeste 29 Oeste 0 -- -- 17
2019-06-17 18:00:00 32.3 13 Sudoeste 29 Sudoeste 0 -- -- 19
2019-06-17 17:00:00 32.2 10 Sudoeste 29 Sur 0 -- -- 20
2019-06-17 16:00:00 31.8 8 Sudoeste 32 Sudoeste 0 -- -- 22
2019-06-17 15:00:00 30.6 11 Sudoeste 31 Sudeste 0 -- -- 24
2019-06-17 14:00:00 28.9 8 Sudeste 23 Oeste 0 -- -- 26
2019-06-17 13:00:00 27.4 9 Sur 19 Sudeste 0 -- -- 30
2019-06-17 12:00:00 26.1 8 Sudeste 13 Sur 0 -- -- 29
2019-06-17 11:00:00 24.2 4 Sudoeste 12 Noroeste 0 -- -- 26
2019-06-17 10:00:00 21.9 6 Noroeste 15 Noroeste 0 -- -- 31
2019-06-17 09:00:00 19.1 4 Noroeste 8 Noroeste 0 -- -- 43
2019-06-17 08:00:00 15.5 5 Noroeste 8 Noroeste 0 -- -- 50
2019-06-17 07:00:00 14.3 2 Sudoeste 7 Noroeste 0 -- -- 49
2019-06-17 06:00:00 15 5 Noroeste 7 Noroeste 0 -- -- 48
2019-06-17 05:00:00 17.1 5 Noroeste 7 Noroeste 0 -- -- 42
2019-06-17 04:00:00 16.7 5 Noroeste 8 Noroeste 0 -- -- 44
2019-06-17 03:00:00 18.1 2 Noroeste 7 Noroeste 0 -- -- 41
2019-06-17 02:00:00 19.6 4 Noroeste 9 Noroeste 0 -- -- 40
2019-06-17 01:00:00 20.6 4 Noroeste 7 Noroeste 0 -- -- 37
2019-06-17 00:00:00 21.8 5 Noroeste 13 Oeste 0 -- -- 33
2019-06-16 23:00:00 23.3 3 Oeste 8 Noroeste 0 -- -- 29
2019-06-16 22:00:00 24.9 4 Oeste 9 Sudoeste 0 -- -- 28
2019-06-16 21:00:00 26.5 5 Sudoeste 22 Sudoeste 0 -- -- 26
2019-06-16 20:00:00 27.2 14 Sudoeste 25 Sudoeste 0 -- -- 25
2019-06-16 19:00:00 28.6 12 Sudoeste 26 Sudoeste 0 -- -- 22
2019-06-16 18:00:00 28.8 11 Sudoeste 24 Sudoeste 0 -- -- 20
2019-06-16 17:00:00 29.2 11 Sudoeste 23 Sudoeste 0 -- -- 18
2019-06-16 16:00:00 30 12 Sudoeste 24 Sudoeste 0 -- -- 19
2019-06-16 15:00:00 29.7 6 Sudeste 19 Sudoeste 0 -- -- 19
2019-06-16 14:00:00 28.7 10 Oeste 25 Sudoeste 0 -- -- 21
2019-06-16 13:00:00 28.4 8 Sudoeste 19 Sudoeste 0 -- -- 20
2019-06-16 12:00:00 26.3 8 Oeste 15 Oeste 0 -- -- 25
2019-06-16 11:00:00 24 4 Este 10 Este 0 -- -- 28
2019-06-16 10:00:00 19.9 3 Noroeste 7 Norte 0 -- -- 39
2019-06-16 09:00:00 15.2 4 Sudoeste 6 Sudoeste 0 -- -- 46
2019-06-16 08:00:00 12.4 4 Noroeste 6 Noroeste 0 -- -- 50
2019-06-16 07:00:00 11.9 3 Oeste 6 Oeste 0 -- -- 51
2019-06-16 06:00:00 12.1 2 Oeste 6 Noroeste 0 -- -- 46
2019-06-16 05:00:00 12.9 0 Calma 5 Sudoeste 0 -- -- 42
2019-06-16 04:00:00 14 0 Calma 8 Sudoeste 0 -- -- 41
2019-06-16 03:00:00 15.8 2 Sudoeste 5 Sudoeste 0 -- -- 38
2019-06-16 02:00:00 17.4 5 Oeste 6 Oeste 0 -- -- 36
2019-06-16 01:00:00 18.7 2 Oeste 7 Sudoeste 0 -- -- 34
2019-06-16 00:00:00 19.8 3 Sudoeste 8 Sudoeste 0 -- -- 31
2019-06-15 23:00:00 20.8 4 Sudoeste 12 Noroeste 0 -- -- 31
2019-06-15 22:00:00 22.8 6 Noroeste 14 Noroeste 0 -- -- 28
2019-06-15 21:00:00 25.4 10 Noroeste 18 Noroeste 0 -- -- 26
2019-06-15 20:00:00 26.4 7 Oeste 18 Oeste 0 -- -- 23
2019-06-15 19:00:00 26.2 10 Noroeste 23 Oeste 0 -- -- 22
2019-06-15 18:00:00 26.4 9 Noroeste 23 Oeste 0 -- -- 23
2019-06-15 17:00:00 26 9 Oeste 24 Norte 0 -- -- 26
2019-06-15 16:00:00 25 9 Oeste 24 Noroeste 0 -- -- 28
2019-06-15 15:00:00 23.3 6 Noroeste 18 Noroeste 0 -- -- 32
2019-06-15 14:00:00 22.5 9 Noroeste 20 Noroeste 0 -- -- 33
2019-06-15 13:00:00 20.7 10 Noroeste 19 Sudoeste 0 -- -- 37
2019-06-15 12:00:00 19.6 8 Sudoeste 17 Noroeste 0 -- -- 41
2019-06-15 11:00:00 17.6 6 Noroeste 15 Noroeste 0 -- -- 46
2019-06-15 10:00:00 16.1 4 Oeste 11 Sudoeste 0 -- -- 51
2019-06-15 09:00:00 14.2 5 Noroeste 9 Noroeste 0 -- -- 57
2019-06-15 08:00:00 12.1 4 Noroeste 9 Noroeste 0 -- -- 62
2019-06-15 07:00:00 11.2 4 Noroeste 8 Noroeste 0 -- -- 63
2019-06-15 06:00:00 11.1 5 Noroeste 8 Noroeste 0 -- -- 62
2019-06-15 05:00:00 11.7 4 Noroeste 6 Noroeste 0 -- -- 59
2019-06-15 04:00:00 12.5 3 Noroeste 8 Noroeste 0 -- -- 56
2019-06-15 03:00:00 13 4 Oeste 9 Oeste 0 -- -- 54
2019-06-15 02:00:00 13.5 3 Noroeste 10 Oeste 0 -- -- 51
2019-06-15 01:00:00 15.3 4 Oeste 14 Oeste 0 -- -- 47
2019-06-15 00:00:00 16.3 5 Oeste 20 Oeste 0 -- -- 44
2019-06-14 23:00:00 17.3 9 Noroeste 27 Oeste 0 -- -- 42
2019-06-14 22:00:00 18.7 12 Noroeste 32 Noroeste 0 -- -- 39
2019-06-14 21:00:00 21 12 Noroeste 34 Oeste 0 -- -- 35
2019-06-14 20:00:00 23.1 10 Oeste 33 Oeste 0 -- -- 32
2019-06-14 19:00:00 25.2 9 Oeste 38 Oeste 0 -- -- 30
2019-06-14 18:00:00 25.8 14 Sudoeste 34 Sudoeste 0 -- -- 31
2019-06-14 17:00:00 25.7 18 Sudoeste 37 Sudoeste 0 -- -- 29
2019-06-14 16:00:00 25 12 Oeste 34 Sudoeste 0 -- -- 30
2019-06-14 15:00:00 24.1 17 Sudoeste 38 Sudoeste 0 -- -- 32
2019-06-14 14:00:00 24.3 18 Sudoeste 35 Sudoeste 0 -- -- 30
2019-06-14 13:00:00 22.8 15 Sudoeste 31 Sudoeste 0 -- -- 36
2019-06-14 12:00:00 22.3 13 Sudoeste 27 Sudoeste 0 -- -- 41
2019-06-14 11:00:00 20.7 14 Sudoeste 26 Sur 0 -- -- 45
2019-06-14 10:00:00 19 13 Sudoeste 26 Sudoeste 0 -- -- 44
2019-06-14 09:00:00 15.6 8 Noroeste 12 Oeste 0 -- -- 47
2019-06-14 08:00:00 15 5 Noroeste 9 Noroeste 0 -- -- 47
2019-06-14 07:00:00 14 4 Noroeste 11 Oeste 0 -- -- 48
2019-06-14 06:00:00 14.7 4 Noroeste 12 Oeste 0 -- -- 45
2019-06-14 05:00:00 16.1 3 Oeste 16 Oeste 0 -- -- 41
2019-06-14 04:00:00 17.9 5 Oeste 17 Oeste 0 -- -- 38
2019-06-14 03:00:00 19.9 8 Oeste 16 Sudoeste 0 -- -- 34
2019-06-14 02:00:00 20.5 6 Oeste 18 Oeste 0 -- -- 34
2019-06-14 01:00:00 21 5 Oeste 12 Oeste 0 -- -- 37
2019-06-14 00:00:00 22 4 Oeste 17 Noroeste 0 -- -- 35
2019-06-13 23:00:00 23.4 6 Oeste 19 Oeste 0 -- -- 36
2019-06-13 22:00:00 24.3 8 Sudoeste 15 Sudoeste 0 -- -- 40
2019-06-13 21:00:00 26 10 Sudoeste 21 Sudoeste 0 -- -- 36
2019-06-13 20:00:00 27.7 10 Sudoeste 23 Oeste 0 -- -- 33
2019-06-13 19:00:00 28.7 11 Oeste 28 Sudoeste 0 -- -- 30
2019-06-13 18:00:00 28.7 10 Sudoeste 23 Sudoeste 0 -- -- 31
2019-06-13 17:00:00 28.6 11 Sudoeste 27 Sudoeste 0 -- -- 34
2019-06-13 16:00:00 28 8 Oeste 26 Sudoeste 0 -- -- 33
2019-06-13 15:00:00 27.7 7 Sudoeste 25 Sudoeste 0 -- -- 34
2019-06-13 14:00:00 26.5 10 Oeste 23 Sudoeste 0 -- -- 35
2019-06-13 13:00:00 25.5 6 Sudeste 25 Oeste 0 -- -- 39
2019-06-13 12:00:00 24 10 Sur 23 Sudoeste 0 -- -- 42
2019-06-13 11:00:00 22.1 6 Sudeste 17 Sudeste 0 -- -- 48
2019-06-13 10:00:00 19.9 8 Sur 19 Este 0 -- -- 59
2019-06-13 09:00:00 18.1 7 Sudeste 19 Este 0 -- -- 64
2019-06-13 08:00:00 15.5 2 Noroeste 11 Sudeste 0 -- -- 64
2019-06-13 07:00:00 16.3 3 Sudeste 16 Este 0 -- -- 66
2019-06-13 06:00:00 16.9 5 Sudeste 13 Sur 0 -- -- 63
2019-06-13 05:00:00 17.1 6 Sudoeste 13 Oeste 0 -- -- 52
2019-06-13 04:00:00 18.2 3 Nordeste 5 Este 0 -- -- 48
2019-06-13 03:00:00 19.2 3 Sur 8 Oeste 0 -- -- 45
2019-06-13 02:00:00 19.6 4 Oeste 11 Sudoeste 0 -- -- 42
2019-06-13 01:00:00 20.2 2 Noroeste 11 Noroeste 0 -- -- 39
2019-06-13 00:00:00 21.4 6 Noroeste 10 Sudoeste 0 -- -- 37
2019-06-12 23:00:00 22.5 5 Sudoeste 16 Sur 0 -- -- 37
2019-06-12 22:00:00 24.2 7 Sudoeste 21 Sudoeste 0 -- -- 32
2019-06-12 21:00:00 27 11 Sudoeste 22 Sudoeste 0 -- -- 27
2019-06-12 20:00:00 28 9 Sudoeste 26 Sudoeste 0 -- -- 24
2019-06-12 19:00:00 27.9 6 Sur 27 Sur 0 -- -- 23
2019-06-12 18:00:00 27.9 7 Sudoeste 19 Sudoeste 0 -- -- 23
2019-06-12 17:00:00 27.8 10 Noroeste 25 Noroeste 0 -- -- 21
2019-06-12 16:00:00 27.5 9 Oeste 23 Oeste 0 -- -- 20
2019-06-12 15:00:00 26.1 10 Sudoeste 26 Noroeste 0 -- -- 26
2019-06-12 14:00:00 24.6 9 Noroeste 23 Noroeste 0 -- -- 24
2019-06-12 13:00:00 23.8 6 Sur 22 Sudoeste 0 -- -- 29
2019-06-12 12:00:00 22.7 6 Nordeste 15 Sudeste 0 -- -- 33
2019-06-12 11:00:00 21.3 6 Sudeste 17 Este 0 -- -- 35
2019-06-12 10:00:00 18.7 5 Este 12 Este 0 -- -- 47
2019-06-12 09:00:00 15 3 Sudoeste 8 Sur 0 -- -- 43
2019-06-12 08:00:00 11.1 3 Sudoeste 6 Sudoeste 0 -- -- 43
2019-06-12 07:00:00 10.4 3 Sudoeste 9 Sudoeste 0 -- -- 44
2019-06-12 06:00:00 11.3 3 Sudoeste 8 Sudoeste 0 -- -- 40
2019-06-12 05:00:00 13.4 3 Sur 12 Este 0 -- -- 35
2019-06-12 04:00:00 15.4 7 Este 16 Este 0 -- -- 34
2019-06-12 03:00:00 16.4 4 Sudoeste 29 Este 0 -- -- 30
2019-06-12 02:00:00 17.3 12 Nordeste 30 Nordeste 0 -- -- 28
2019-06-12 01:00:00 18.2 12 Nordeste 32 Nordeste 0 -- -- 28
2019-06-12 00:00:00 18.5 9 Nordeste 30 Nordeste 0 -- -- 31
2019-06-11 23:00:00 19.1 14 Nordeste 28 Norte 0 -- -- 34
2019-06-11 22:00:00 19.8 9 Nordeste 35 Nordeste 0 -- -- 34
2019-06-11 21:00:00 21.2 12 Nordeste 38 Nordeste 0 -- -- 35
2019-06-11 20:00:00 21.8 18 Nordeste 39 Nordeste 0 -- -- 35
2019-06-11 19:00:00 23.2 15 Nordeste 36 Nordeste 0 -- -- 34
2019-06-11 18:00:00 24.1 19 Norte 41 Norte 0 -- -- 34
2019-06-11 17:00:00 25.1 12 Norte 26 Norte 0 -- -- 30
2019-06-11 16:00:00 24.8 14 Noroeste 29 Norte 0 -- -- 32
2019-06-11 15:00:00 23.5 15 Noroeste 29 Noroeste 0 -- -- 34
2019-06-11 14:00:00 23.6 12 Oeste 27 Noroeste 0 -- -- 37
2019-06-11 13:00:00 23.2 10 Oeste 24 Oeste 0 -- -- 38
2019-06-11 12:00:00 20.9 10 Noroeste 24 Oeste 0 -- -- 40
2019-06-11 11:00:00 19.9 11 Oeste 23 Noroeste 0 -- -- 42
2019-06-11 10:00:00 18.7 7 Oeste 18 Sudoeste 0 -- -- 42
2019-06-11 09:00:00 16.6 5 Oeste 16 Oeste 0 -- -- 46
2019-06-11 08:00:00 14.2 7 Noroeste 13 Noroeste 0 -- -- 50
2019-06-11 07:00:00 13.6 4 Oeste 10 Oeste 0 -- -- 51
2019-06-11 06:00:00 13.8 3 Noroeste 11 Oeste 0 -- -- 49
2019-06-11 05:00:00 14.5 5 Noroeste 12 Noroeste 0 -- -- 46
2019-06-11 04:00:00 15.6 6 Noroeste 13 Oeste 0 -- -- 43
2019-06-11 03:00:00 16.4 4 Noroeste 13 Noroeste 0 -- -- 39
2019-06-11 02:00:00 17.5 5 Norte 8 Norte 0 -- -- 36
2019-06-11 01:00:00 18.2 4 Noroeste 7 Sudoeste 0 -- -- 35
2019-06-11 00:00:00 18.9 3 Noroeste 13 Sudoeste 0 -- -- 35
2019-06-10 23:00:00 21.2 7 Oeste 14 Oeste 0 -- -- 32
2019-06-10 22:00:00 22.8 5 Oeste 19 Oeste 0 -- -- 30
2019-06-10 21:00:00 25 10 Oeste 25 Oeste 0 -- -- 29
2019-06-10 20:00:00 26.1 9 Oeste 23 Noroeste 0 -- -- 26
2019-06-10 19:00:00 26.4 9 Oeste 29 Noroeste 0 -- -- 26
2019-06-10 18:00:00 26.7 13 Noroeste 30 Noroeste 0 -- -- 25
2019-06-10 17:00:00 26.7 10 Oeste 26 Sudoeste 0 -- -- 26
2019-06-10 16:00:00 26 12 Oeste 27 Oeste 0 -- -- 28
2019-06-10 15:00:00 24.9 9 Norte 21 Noroeste 0 -- -- 31
2019-06-10 14:00:00 24 8 Noroeste 24 Sudoeste 0 -- -- 30
2019-06-10 13:00:00 23.2 10 Noroeste 24 Noroeste 0 -- -- 32
2019-06-10 12:00:00 21.3 6 Sur 19 Noroeste 0 -- -- 37
2019-06-10 11:00:00 19.9 7 Noroeste 19 Noroeste 0 -- -- 43
2019-06-10 10:00:00 17.9 4 Oeste 10 Noroeste 0 -- -- 50
2019-06-10 09:00:00 15.6 5 Noroeste 10 Noroeste 0 -- -- 58
2019-06-10 08:00:00 13.3 6 Noroeste 11 Noroeste 0 -- -- 63
2019-06-10 07:00:00 13 6 Noroeste 9 Noroeste 0 -- -- 62
2019-06-10 06:00:00 13.9 5 Noroeste 12 Noroeste 0 -- -- 59
2019-06-10 05:00:00 14.5 4 Noroeste 14 Sudoeste 0 -- -- 56
2019-06-10 04:00:00 15.4 5 Sudoeste 17 Sudoeste 0 -- -- 52
2019-06-10 03:00:00 16.7 6 Sudoeste 14 Sudoeste 0 -- -- 48
2019-06-10 02:00:00 17.5 7 Oeste 15 Oeste 0 -- -- 45
2019-06-10 01:00:00 18.3 5 Oeste 14 Oeste 0 -- -- 41
2019-06-10 00:00:00 19 4 Oeste 17 Oeste 0 -- -- 36
2019-06-09 23:00:00 20.6 9 Noroeste 23 Norte 0 -- -- 33
2019-06-09 22:00:00 21.8 9 Noroeste 30 Oeste 0 -- -- 29
2019-06-09 21:00:00 23.9 12 Noroeste 38 Oeste 0 -- -- 27
2019-06-09 20:00:00 26.4 12 Oeste 28 Oeste 0 -- -- 22
2019-06-09 19:00:00 27.1 13 Oeste 31 Oeste 0 -- -- 21
2019-06-09 18:00:00 27.8 14 Oeste 33 Sudoeste 0 -- -- 20
2019-06-09 17:00:00 27.2 14 Oeste 35 Noroeste 0 -- -- 25
2019-06-09 16:00:00 26.7 15 Oeste 37 Noroeste 0 -- -- 28
2019-06-09 15:00:00 27 12 Sudoeste 30 Noroeste 0 -- -- 29
2019-06-09 14:00:00 25.9 10 Oeste 30 Noroeste 0 -- -- 31
2019-06-09 13:00:00 25 10 Sudoeste 28 Sudoeste 0 -- -- 34
2019-06-09 12:00:00 24.4 14 Sudoeste 29 Sudoeste 0 -- -- 35
2019-06-09 11:00:00 23.3 8 Sudoeste 20 Oeste 0 -- -- 35
2019-06-09 10:00:00 20.3 4 Norte 12 Noroeste 0 -- -- 39
2019-06-09 09:00:00 17.7 5 Noroeste 9 Noroeste 0 -- -- 45
2019-06-09 08:00:00 15.8 5 Noroeste 13 Noroeste 0 -- -- 45
2019-06-09 07:00:00 15.8 8 Oeste 16 Oeste 0 -- -- 41
2019-06-09 06:00:00 16.9 7 Oeste 15 Noroeste 0 -- -- 38
2019-06-09 05:00:00 18.3 6 Noroeste 17 Sudoeste 0 -- -- 37
2019-06-09 04:00:00 19.8 8 Sudoeste 15 Sudoeste 0 -- -- 42
2019-06-09 03:00:00 20.8 3 Oeste 14 Sudoeste 0 -- -- 43
2019-06-09 02:00:00 21.8 9 Sudoeste 19 Sudoeste 0 -- -- 42
2019-06-09 01:00:00 22.3 3 Noroeste 16 Oeste 0 -- -- 37
2019-06-09 00:00:00 23.7 7 Oeste 13 Oeste 0 -- -- 33
2019-06-08 23:00:00 24.6 6 Sudoeste 14 Oeste 0 -- -- 32
2019-06-08 22:00:00 25.3 4 Sudoeste 19 Sudoeste 0 -- -- 32
2019-06-08 21:00:00 26.6 8 Sudoeste 19 Sudoeste 0 -- -- 30
2019-06-08 20:00:00 27.7 10 Sudoeste 24 Sudoeste 0 -- -- 29
2019-06-08 19:00:00 28.6 12 Sudoeste 27 Sudoeste 0 -- -- 26
2019-06-08 18:00:00 29.8 9 Sudoeste 30 Sudoeste 0 -- -- 24
2019-06-08 17:00:00 29.3 11 Sudoeste 31 Sur 0 -- -- 24
2019-06-08 16:00:00 28.9 11 Sudoeste 31 Sudoeste 0 -- -- 24
2019-06-08 15:00:00 29.2 16 Sudoeste 30 Oeste 0 -- -- 24
2019-06-08 14:00:00 28.6 15 Sur 30 Sur 0 -- -- 26
2019-06-08 13:00:00 27.1 10 Sudoeste 26 Sur 0 -- -- 27
2019-06-08 12:00:00 25.4 13 Sur 30 Sur 0 -- -- 30
2019-06-08 11:00:00 22.3 6 Este 14 Este 0 -- -- 29
2019-06-08 10:00:00 18.4 3 Sudoeste 7 Noroeste 0 -- -- 31
2019-06-08 09:00:00 14.3 4 Sudoeste 7 Sudoeste 0 -- -- 40
2019-06-08 08:00:00 11 3 Sudoeste 11 Noroeste 0 -- -- 47
2019-06-08 07:00:00 10.4 3 Sudoeste 6 Sudoeste 0 -- -- 47
2019-06-08 06:00:00 10.8 0 Calma 8 Sudoeste 0 -- -- 47
2019-06-08 05:00:00 11.6 4 Sudoeste 9 Sudoeste 0 -- -- 44
2019-06-08 04:00:00 12.7 4 Sudoeste 8 Oeste 0 -- -- 41
2019-06-08 03:00:00 14.5 4 Noroeste 8 Noroeste 0 -- -- 38
2019-06-08 02:00:00 14.9 4 Oeste 8 Sudoeste 0 -- -- 37
2019-06-08 01:00:00 15.6 5 Oeste 9 Noroeste 0 -- -- 34
2019-06-08 00:00:00 16.6 3 Oeste 8 Noroeste 0 -- -- 32
2019-06-07 23:00:00 18.3 5 Oeste 14 Noroeste 0 -- -- 28
2019-06-07 22:00:00 20.4 7 Noroeste 15 Noroeste 0 -- -- 27
2019-06-07 21:00:00 22.4 9 Noroeste 18 Norte 0 -- -- 24
2019-06-07 20:00:00 23.2 8 Norte 17 Noroeste 0 -- -- 22
2019-06-07 19:00:00 24 4 Noroeste 19 Oeste 0 -- -- 21
2019-06-07 18:00:00 23.6 8 Noroeste 22 Norte 0 -- -- 23
2019-06-07 17:00:00 23.3 11 Noroeste 26 Noroeste 0 -- -- 24
2019-06-07 16:00:00 22.8 9 Sudoeste 20 Oeste 0 -- -- 27
2019-06-07 15:00:00 22 9 Sudoeste 26 Noroeste 0 -- -- 23
2019-06-07 14:00:00 20.4 7 Sudoeste 23 Noroeste 0 -- -- 27
2019-06-07 13:00:00 18.6 12 Oeste 23 Noroeste 0 -- -- 31
2019-06-07 12:00:00 16.9 10 Noroeste 21 Oeste 0 -- -- 41
2019-06-07 11:00:00 15.7 9 Oeste 22 Sudoeste 0 -- -- 45
2019-06-07 10:00:00 14.7 9 Sudoeste 22 Sudoeste 0 -- -- 54
2019-06-07 09:00:00 12.8 10 Oeste 24 Sudoeste 0 -- -- 62
2019-06-07 08:00:00 11.9 8 Oeste 19 Oeste 0 -- -- 67
2019-06-07 07:00:00 11.4 10 Sudoeste 32 Noroeste 0 -- -- 72
2019-06-07 06:00:00 13.5 17 Noroeste 35 Noroeste 0 -- -- 76
2019-06-07 05:00:00 16.2 9 Oeste 21 Sudoeste 0 -- -- 62
2019-06-07 04:00:00 15.8 9 Oeste 28 Oeste 0 -- -- 60
2019-06-07 03:00:00 16.2 11 Sudoeste 23 Oeste 0 -- -- 57
2019-06-07 02:00:00 16.9 9 Sudoeste 21 Sudoeste 0 -- -- 48
2019-06-07 01:00:00 17.5 4 Oeste 20 Sudoeste 0 -- -- 35
2019-06-07 00:00:00 18.9 7 Sudoeste 23 Sudoeste 0 -- -- 30
2019-06-06 23:00:00 20.1 13 Sudoeste 21 Sudoeste 0 -- -- 25
2019-06-06 22:00:00 21.3 10 Sudoeste 27 Sudoeste 0 -- -- 20
2019-06-06 21:00:00 23.8 15 Sudoeste 31 Sudoeste 0 -- -- 22
2019-06-06 20:00:00 25.5 15 Sudoeste 34 Oeste 0 -- -- 22
2019-06-06 19:00:00 26.3 19 Sudoeste 39 Sudoeste 0 -- -- 20
2019-06-06 18:00:00 26.7 15 Sudoeste 37 Sur 0 -- -- 19
2019-06-06 17:00:00 26.5 16 Sudoeste 36 Sudoeste 0 -- -- 18
2019-06-06 16:00:00 26.2 16 Sudoeste 34 Sudoeste 0 -- -- 19
2019-06-06 15:00:00 25.3 15 Sudoeste 32 Sudoeste 0 -- -- 22
2019-06-06 14:00:00 24 14 Sur 30 Sudoeste 0 -- -- 26
2019-06-06 13:00:00 22.1 12 Sur 24 Sudoeste 0 -- -- 30
2019-06-06 12:00:00 20.7 11 Sudoeste 24 Sudoeste 0 -- -- 35
2019-06-06 11:00:00 18.1 6 Sudoeste 12 Sudoeste 0 -- -- 39
2019-06-06 10:00:00 16 3 Sudoeste 10 Noroeste 0 -- -- 43
2019-06-06 09:00:00 13.2 4 Noroeste 8 Oeste 0 -- -- 51
2019-06-06 08:00:00 11.4 5 Noroeste 8 Noroeste 0 -- -- 54
2019-06-06 07:00:00 11.5 3 Oeste 8 Noroeste 0 -- -- 53
2019-06-06 06:00:00 10.8 3 Noroeste 9 Oeste 0 -- -- 54
2019-06-06 05:00:00 11.3 4 Noroeste 7 Oeste 0 -- -- 52
2019-06-06 04:00:00 12.1 3 Noroeste 7 Noroeste 0 -- -- 49
2019-06-06 03:00:00 12.7 3 Noroeste 9 Noroeste 0 -- -- 47
2019-06-06 02:00:00 13.6 4 Noroeste 8 Oeste 0 -- -- 42
2019-06-06 01:00:00 14.3 5 Noroeste 8 Noroeste 0 -- -- 41
2019-06-06 00:00:00 14.9 4 Noroeste 10 Sudoeste 0 -- -- 39
2019-06-05 23:00:00 16.8 5 Sudoeste 12 Oeste 0 -- -- 35
2019-06-05 22:00:00 17.9 5 Noroeste 16 Oeste 0 -- -- 34
2019-06-05 21:00:00 20.3 7 Oeste 23 Sudoeste 0 -- -- 28
2019-06-05 20:00:00 21.4 11 Oeste 31 Oeste 0 -- -- 29
2019-06-05 19:00:00 21.4 10 Oeste 30 Oeste 0 -- -- 31
2019-06-05 18:00:00 20.5 14 Noroeste 27 Noroeste 0 -- -- 32
2019-06-05 17:00:00 20.9 11 Oeste 32 Oeste 0 -- -- 30
2019-06-05 16:00:00 21.1 11 Oeste 30 Noroeste 0 -- -- 32
2019-06-05 15:00:00 20.8 14 Oeste 37 Oeste 0 -- -- 32
2019-06-05 14:00:00 19.6 18 Noroeste 37 Noroeste 0 -- -- 35
2019-06-05 13:00:00 18.5 15 Noroeste 40 Noroeste 0 -- -- 38
2019-06-05 12:00:00 17.1 14 Noroeste 34 Oeste 0 -- -- 43
2019-06-05 11:00:00 15.5 14 Oeste 33 Noroeste 0 -- -- 50
2019-06-05 10:00:00 14.3 14 Oeste 29 Sudoeste 0 -- -- 56
2019-06-05 09:00:00 12.6 13 Oeste 26 Oeste 0 -- -- 65
2019-06-05 08:00:00 11.1 12 Oeste 27 Oeste 0 -- -- 71
2019-06-05 07:00:00 11 7 Oeste 23 Oeste 0 -- -- 69
2019-06-05 06:00:00 12.2 10 Oeste 26 Oeste 0 -- -- 61
2019-06-05 05:00:00 14.7 14 Oeste 31 Oeste 0 -- -- 57
2019-06-05 04:00:00 16 10 Oeste 27 Sudoeste 0 -- -- 59
2019-06-05 03:00:00 16.7 9 Oeste 24 Oeste 0 -- -- 62
2019-06-05 02:00:00 18.4 9 Oeste 28 Oeste 0 -- -- 59
2019-06-05 01:00:00 19.2 9 Oeste 24 Noroeste 0 -- -- 62
2019-06-05 00:00:00 20.4 9 Oeste 25 Oeste 0 -- -- 56
2019-06-04 23:00:00 21.7 9 Oeste 27 Oeste 0 -- -- 49
2019-06-04 22:00:00 23.5 8 Oeste 26 Noroeste 0 -- -- 45
2019-06-04 21:00:00 26.4 12 Oeste 29 Noroeste 0 -- -- 38
2019-06-04 20:00:00 28.8 12 Noroeste 28 Oeste 0 -- -- 32
2019-06-04 19:00:00 30.1 15 Sudoeste 29 Sudoeste 0 -- -- 31
2019-06-04 18:00:00 29.5 13 Sudoeste 28 Sudoeste 0 -- -- 30
2019-06-04 17:00:00 30.5 12 Sudoeste 32 Sudoeste 0 -- -- 29
2019-06-04 16:00:00 31 14 Sudoeste 32 Oeste 0 -- -- 28
2019-06-04 15:00:00 30.8 16 Sudoeste 37 Sudoeste 0 -- -- 26
2019-06-04 14:00:00 30.1 16 Sudoeste 33 Sur 0 -- -- 27
2019-06-04 13:00:00 29.2 16 Sudoeste 35 Sudoeste 0 -- -- 27
2019-06-04 12:00:00 28.3 15 Sudoeste 31 Sudoeste 0 -- -- 25
2019-06-04 11:00:00 26.3 11 Sudoeste 22 Sur 0 -- -- 33
2019-06-04 10:00:00 24.5 6 Sudeste 18 Este 0 -- -- 38
2019-06-04 09:00:00 22 6 Sudeste 13 Este 0 -- -- 39
2019-06-04 08:00:00 17.6 4 Sudoeste 6 Sudoeste 0 -- -- 44
2019-06-04 07:00:00 17.8 3 Sudoeste 5 Sudoeste 0 -- -- 41
2019-06-04 06:00:00 19.4 0 Calma 7 Noroeste 0 -- -- 38
2019-06-04 05:00:00 20.1 3 Noroeste 8 Noroeste 0 -- -- 36
2019-06-04 04:00:00 20.8 6 Noroeste 10 Oeste 0 -- -- 31
2019-06-04 03:00:00 21.8 6 Noroeste 10 Noroeste 0 -- -- 28
2019-06-04 02:00:00 22.3 4 Noroeste 8 Noroeste 0 -- -- 27
2019-06-04 01:00:00 23.7 4 Noroeste 10 Noroeste 0 -- -- 26
2019-06-04 00:00:00 24.7 4 Noroeste 9 Noroeste 0 -- -- 25
2019-06-03 23:00:00 26.9 5 Noroeste 12 Sudoeste 0 -- -- 24
2019-06-03 22:00:00 28.8 7 Sudoeste 32 Sudoeste 0 -- -- 21
2019-06-03 21:00:00 31.6 13 Sudoeste 31 Sudoeste 0 -- -- 19
2019-06-03 20:00:00 33.8 12 Sudoeste 29 Sudoeste 0 -- -- 18
2019-06-03 19:00:00 34.5 12 Sudoeste 35 Sudoeste 0 -- -- 18
2019-06-03 18:00:00 34.8 16 Sudoeste 31 Sur 0 -- -- 18
2019-06-03 17:00:00 35.2 16 Sudoeste 31 Sudoeste 0 -- -- 18
2019-06-03 16:00:00 34.6 13 Oeste 24 Sudoeste 0 -- -- 18
2019-06-03 15:00:00 34 9 Sudoeste 44 Sudoeste 0 -- -- 18
2019-06-03 14:00:00 32.3 7 Noroeste 22 Noroeste 0 -- -- 18
2019-06-03 13:00:00 32 9 Sudoeste 18 Oeste 0 -- -- 19
2019-06-03 12:00:00 30.5 6 Oeste 17 Oeste 0 -- -- 19
2019-06-03 11:00:00 28.4 8 Noroeste 17 Noroeste 0 -- -- 19
2019-06-03 10:00:00 25.3 4 Norte 8 Noroeste 0 -- -- 28
2019-06-03 09:00:00 22 3 Sudoeste 6 Noroeste 0 -- -- 34
2019-06-03 08:00:00 19.1 4 Noroeste 8 Noroeste 0 -- -- 37
2019-06-03 07:00:00 19.4 2 Noroeste 6 Sudoeste 0 -- -- 37
2019-06-03 06:00:00 21.4 2 Nordeste 9 Este 0 -- -- 33
2019-06-03 05:00:00 22.4 2 Nordeste 14 Sur 0 -- -- 31
2019-06-03 04:00:00 23.6 6 Sudeste 15 Sudeste 0 -- -- 29
2019-06-03 03:00:00 23.3 2 Norte 12 Sudoeste 0 -- -- 31
2019-06-03 02:00:00 24.8 4 Noroeste 8 Noroeste 0 -- -- 28
2019-06-03 01:00:00 25.1 4 Norte 8 Norte 0 -- -- 31
2019-06-03 00:00:00 26.3 3 Noroeste 8 Noroeste 0 -- -- 29
2019-06-02 23:00:00 27.5 3 Noroeste 11 Sudoeste 0 -- -- 26
2019-06-02 22:00:00 29.2 3 Sudoeste 13 Noroeste 0 -- -- 25
2019-06-02 21:00:00 32.1 6 Noroeste 15 Noroeste 0 -- -- 21
2019-06-02 20:00:00 34.1 7 Noroeste 23 Sudoeste 0 -- -- 19
2019-06-02 19:00:00 34.6 8 Oeste 17 Noroeste 0 -- -- 19
2019-06-02 18:00:00 33.9 8 Noroeste 21 Noroeste 0 -- -- 19
2019-06-02 17:00:00 34.5 7 Sudoeste 19 Sudoeste 0 -- -- 19
2019-06-02 16:00:00 34.1 6 Sudoeste 23 Sur 0 -- -- 19
2019-06-02 15:00:00 33.1 7 Sudoeste 17 Noroeste 0 -- -- 21
2019-06-02 14:00:00 31.9 5 Este 17 Sudoeste 0 -- -- 22
2019-06-02 13:00:00 30.9 9 Sudoeste 15 Sudoeste 0 -- -- 23
2019-06-02 12:00:00 29.2 6 Oeste 12 Este 0 -- -- 25
2019-06-02 11:00:00 27.2 4 Sudoeste 9 Sur 0 -- -- 28
2019-06-02 10:00:00 24.8 3 Sudoeste 6 Oeste 0 -- -- 31
2019-06-02 09:00:00 21.3 3 Oeste 7 Oeste 0 -- -- 36
2019-06-02 08:00:00 17.3 3 Noroeste 7 Noroeste 0 -- -- 42
2019-06-02 07:00:00 17.2 2 Sudoeste 8 Sudoeste 0 -- -- 41
2019-06-02 06:00:00 18.6 3 Sudoeste 8 Sudoeste 0 -- -- 38
2019-06-02 05:00:00 20 4 Noroeste 13 Sudeste 0 -- -- 37
2019-06-02 04:00:00 22.6 6 Sudeste 17 Sudeste 0 -- -- 30
2019-06-02 03:00:00 23 3 Sudeste 10 Este 0 -- -- 28
2019-06-02 02:00:00 23.4 3 Sudeste 13 Este 0 -- -- 27
2019-06-02 01:00:00 24.5 10 Este 21 Este 0 -- -- 28
2019-06-02 00:00:00 25.7 10 Este 21 Este 0 -- -- 23
2019-06-01 23:00:00 27.1 8 Sudeste 27 Este 0 -- -- 22
2019-06-01 22:00:00 29.5 12 Este 27 Este 0 -- -- 21
2019-06-01 21:00:00 30.9 11 Nordeste 23 Este 0 -- -- 18
2019-06-01 20:00:00 32.1 9 Nordeste 36 Norte 0 -- -- 20
2019-06-01 19:00:00 32.2 10 Norte 29 Este 0 -- -- 21
2019-06-01 18:00:00 32.7 6 Nordeste 28 Nordeste 0 -- -- 20
2019-06-01 17:00:00 32.8 8 Este 31 Este 0 -- -- 21
2019-06-01 16:00:00 32.5 12 Nordeste 28 Este 0 -- -- 22
2019-06-01 15:00:00 31.4 12 Este 29 Este 0 -- -- 22
2019-06-01 14:00:00 30.3 10 Este 32 Este 0 -- -- 24
2019-06-01 13:00:00 29.7 8 Sur 21 Este 0 -- -- 26
2019-06-01 12:00:00 28.6 9 Sur 18 Sur 0 -- -- 28
2019-06-01 11:00:00 26.2 4 Sudoeste 10 Oeste 0 -- -- 33
2019-06-01 10:00:00 23.9 3 Este 9 Este 0 -- -- 36
2019-06-01 09:00:00 19.9 0 Calma 6 Sudoeste 0 -- -- 43
2019-06-01 08:00:00 15.9 0 Calma 6 Sudoeste 0 -- -- 50
2019-06-01 07:00:00 16.1 4 Sudoeste 6 Sudoeste 0 -- -- 47
2019-06-01 06:00:00 16.9 4 Sudoeste 8 Sudoeste 0 -- -- 45
2019-06-01 05:00:00 20 5 Sudeste 9 Sudeste 0 -- -- 41
2019-06-01 04:00:00 21.8 4 Sudeste 13 Este 0 -- -- 38
2019-06-01 03:00:00 22.7 6 Este 14 Sur 0 -- -- 36
2019-06-01 02:00:00 22.7 5 Sudeste 18 Este 0 -- -- 36
2019-06-01 01:00:00 22.8 7 Este 15 Este 0 -- -- 32
2019-06-01 00:00:00 24.7 6 Sudeste 30 Este 0 -- -- 28
2019-05-31 23:00:00 27 10 Sudeste 27 Nordeste 0 -- -- 23
2019-05-31 22:00:00 27.4 13 Nordeste 26 Norte 0 -- -- 22
2019-05-31 21:00:00 29.6 13 Nordeste 26 Nordeste 0 -- -- 22
2019-05-31 20:00:00 30.9 11 Nordeste 26 Norte 0 -- -- 20
2019-05-31 19:00:00 31.8 7 Nordeste 27 Nordeste 0 -- -- 20
2019-05-31 18:00:00 31.6 13 Nordeste 27 Nordeste 0 -- -- 20
2019-05-31 17:00:00 31.4 9 Nordeste 28 Este 0 -- -- 21
2019-05-31 16:00:00 31.2 12 Nordeste 30 Este 0 -- -- 22
2019-05-31 15:00:00 30.3 8 Nordeste 25 Nordeste 0 -- -- 21
2019-05-31 14:00:00 29.2 8 Nordeste 27 Nordeste 0 -- -- 23
2019-05-31 13:00:00 28.5 10 Este 31 Este 0 -- -- 26
2019-05-31 12:00:00 27.2 9 Sudeste 19 Este 0 -- -- 28
2019-05-31 11:00:00 25.4 7 Sudeste 17 Este 0 -- -- 32
2019-05-31 10:00:00 23.4 6 Este 14 Este 0 -- -- 37
2019-05-31 09:00:00 19.7 3 Sudoeste 5 Noroeste 0 -- -- 44
2019-05-31 08:00:00 16.2 3 Noroeste 5 Sudoeste 0 -- -- 49
2019-05-31 07:00:00 17.5 0 Calma 12 Sudeste 0 -- -- 48
2019-05-31 06:00:00 18.1 7 Este 12 Este 0 -- -- 44
2019-05-31 05:00:00 19.5 4 Sudeste 14 Este 0 -- -- 41
2019-05-31 04:00:00 21 10 Este 16 Este 0 -- -- 37
2019-05-31 03:00:00 21.4 5 Sudeste 19 Sudeste 0 -- -- 37
2019-05-31 02:00:00 22 6 Sudeste 15 Sur 0 -- -- 34
2019-05-31 01:00:00 22.9 6 Sudeste 14 Este 0 -- -- 30
2019-05-31 00:00:00 24.3 10 Este 27 Este 0 -- -- 28
2019-05-30 23:00:00 25.9 14 Este 32 Este 0 -- -- 26
2019-05-30 22:00:00 26.2 11 Nordeste 30 Nordeste 0 -- -- 25
2019-05-30 21:00:00 28.3 16 Nordeste 31 Nordeste 0 -- -- 23
2019-05-30 20:00:00 30 12 Nordeste 28 Nordeste 0 -- -- 21
2019-05-30 19:00:00 30.5 10 Norte 28 Este 0 -- -- 23
2019-05-30 18:00:00 30.4 10 Nordeste 31 Sudeste 0 -- -- 24
2019-05-30 17:00:00 29.7 10 Este 24 Este 0 -- -- 23
2019-05-30 16:00:00 28.7 9 Norte 27 Nordeste 0 -- -- 24
2019-05-30 15:00:00 27.7 11 Nordeste 24 Norte 0 -- -- 25
2019-05-30 14:00:00 26.9 10 Norte 24 Este 0 -- -- 26
2019-05-30 13:00:00 26.3 9 Este 25 Nordeste 0 -- -- 25
2019-05-30 12:00:00 24.5 11 Nordeste 29 Este 0 -- -- 30
2019-05-30 11:00:00 23.2 12 Este 26 Este 0 -- -- 33
2019-05-30 10:00:00 20.2 5 Sudoeste 11 Sudoeste 0 -- -- 42
2019-05-30 09:00:00 17.1 4 Sudoeste 9 Sudoeste 0 -- -- 47
2019-05-30 08:00:00 14.1 4 Sudoeste 9 Sudoeste 0 -- -- 54
2019-05-30 07:00:00 14.2 2 Noroeste 10 Sudoeste 0 -- -- 51
2019-05-30 06:00:00 17 3 Sur 20 Este 0 -- -- 44
2019-05-30 05:00:00 17.3 3 Sudoeste 12 Norte 0 -- -- 43
2019-05-30 04:00:00 19.1 6 Sudoeste 23 Nordeste 0 -- -- 39
2019-05-30 03:00:00 20.9 10 Nordeste 35 Este 0 -- -- 36
2019-05-30 02:00:00 21.3 8 Este 32 Nordeste 0 -- -- 32
2019-05-30 01:00:00 22.7 8 Este 24 Este 0 -- -- 35
2019-05-30 00:00:00 23.4 10 Nordeste 25 Este 0 -- -- 33
2019-05-29 23:00:00 23.3 8 Nordeste 22 Este 0 -- -- 31
2019-05-29 22:00:00 24.3 8 Nordeste 26 Nordeste 0 -- -- 28
2019-05-29 21:00:00 26.1 12 Nordeste 29 Este 0 -- -- 27
2019-05-29 20:00:00 27.1 12 Nordeste 29 Nordeste 0 -- -- 25
2019-05-29 19:00:00 27.3 14 Nordeste 28 Nordeste 0 -- -- 25
2019-05-29 18:00:00 27.1 15 Norte 35 Norte 0 -- -- 25
2019-05-29 17:00:00 27.1 12 Nordeste 32 Nordeste 0 -- -- 24
2019-05-29 16:00:00 25.8 14 Norte 35 Este 0 -- -- 25
2019-05-29 15:00:00 24.8 12 Nordeste 29 Nordeste 0 -- -- 26
2019-05-29 14:00:00 23.3 15 Nordeste 31 Nordeste 0 -- -- 29
2019-05-29 13:00:00 21.9 12 Nordeste 32 Nordeste 0 -- -- 31
2019-05-29 12:00:00 20.6 15 Nordeste 36 Nordeste 0 -- -- 33
2019-05-29 11:00:00 19.4 8 Nordeste 36 Este 0 -- -- 35
2019-05-29 10:00:00 17.6 14 Este 31 Este 0 -- -- 36
2019-05-29 09:00:00 16.2 13 Nordeste 26 Nordeste 0 -- -- 38
2019-05-29 08:00:00 14.4 9 Sudeste 19 Este 0 -- -- 46
2019-05-29 07:00:00 14.8 10 Sudeste 24 Este 0 -- -- 45
2019-05-29 06:00:00 16 8 Este 26 Este 0 -- -- 42
2019-05-29 05:00:00 16.9 9 Sudeste 20 Este 0 -- -- 41
2019-05-29 04:00:00 17.9 6 Este 35 Este 0 -- -- 39
2019-05-29 03:00:00 18.6 19 Nordeste 51 Nordeste 0 -- -- 36
2019-05-29 02:00:00 19.2 22 Nordeste 48 Nordeste 0 -- -- 36
2019-05-29 01:00:00 20.8 23 Nordeste 48 Nordeste 0 -- -- 31
2019-05-29 00:00:00 22.8 18 Nordeste 43 Nordeste 0 -- -- 27
2019-05-28 23:00:00 24.4 17 Nordeste 32 Nordeste 0 -- -- 22
2019-05-28 22:00:00 25.7 14 Nordeste 30 Norte 0 -- -- 21
2019-05-28 21:00:00 27.8 12 Norte 32 Nordeste 0 -- -- 21
2019-05-28 20:00:00 29.2 15 Norte 28 Norte 0 -- -- 28
2019-05-28 19:00:00 30 12 Norte 22 Norte 0 -- -- 28
2019-05-28 18:00:00 30.4 10 Noroeste 25 Norte 0 -- -- 27
2019-05-28 17:00:00 30.2 8 Norte 19 Oeste 0 -- -- 29
2019-05-28 16:00:00 29.1 12 Norte 28 Oeste 0 -- -- 29
2019-05-28 15:00:00 28.2 8 Oeste 24 Noroeste 0 -- -- 31
2019-05-28 14:00:00 27.8 10 Norte 27 Este 0 -- -- 32
2019-05-28 13:00:00 27.1 9 Nordeste 22 Nordeste 0 -- -- 34
2019-05-28 12:00:00 25.6 9 Nordeste 25 Este 0 -- -- 36
2019-05-28 11:00:00 24.8 12 Este 24 Este 0 -- -- 38
2019-05-28 10:00:00 22.3 6 Sur 11 Sudoeste 0 -- -- 49
2019-05-28 09:00:00 19.8 4 Noroeste 13 Noroeste 0 -- -- 53
2019-05-28 08:00:00 17.9 3 Sudeste 11 Este 0 -- -- 58
2019-05-28 07:00:00 17.7 5 Sudeste 15 Sudeste 0 -- -- 56
2019-05-28 06:00:00 18.6 5 Sudeste 12 Este 0 -- -- 54
2019-05-28 05:00:00 19.1 0 Calma 15 Sudeste 0 -- -- 51
2019-05-28 04:00:00 20.9 6 Sudeste 16 Este 0 -- -- 46
2019-05-28 03:00:00 21.7 6 Este 28 Nordeste 0 -- -- 43
2019-05-28 02:00:00 22.1 6 Norte 13 Nordeste 0 -- -- 39
2019-05-28 01:00:00 22.2 3 Oeste 8 Sudoeste 0 -- -- 40
2019-05-28 00:00:00 23.2 5 Sudoeste 15 Noroeste 0 -- -- 37
2019-05-27 23:00:00 24.9 5 Noroeste 10 Noroeste 0 -- -- 35
2019-05-27 22:00:00 26.2 6 Noroeste 20 Noroeste 0 -- -- 33
2019-05-27 21:00:00 28.8 10 Noroeste 25 Oeste 0 -- -- 29
2019-05-27 20:00:00 29.9 10 Oeste 26 Oeste 0 -- -- 27
2019-05-27 19:00:00 30.1 12 Oeste 32 Oeste 0 -- -- 26
2019-05-27 18:00:00 30 9 Noroeste 34 Noroeste 0 -- -- 25
2019-05-27 17:00:00 30.1 12 Oeste 30 Oeste 0 -- -- 24
2019-05-27 16:00:00 29.5 12 Oeste 32 Noroeste 0 -- -- 26
2019-05-27 15:00:00 29.2 9 Noroeste 26 Oeste 0 -- -- 28
2019-05-27 14:00:00 28.7 5 Sudoeste 24 Noroeste 0 -- -- 29
2019-05-27 13:00:00 27.3 8 Norte 20 Noroeste 0 -- -- 31
2019-05-27 12:00:00 26.5 4 Sur 14 Sudeste 0 -- -- 31
2019-05-27 11:00:00 24.6 5 Sudeste 15 Este 0 -- -- 33
2019-05-27 10:00:00 20.3 4 Sudoeste 8 Sudoeste 0 -- -- 38
2019-05-27 09:00:00 17 0 Calma 5 Sudoeste 0 -- -- 47
2019-05-27 08:00:00 13.5 4 Sudoeste 6 Sudoeste 0 -- -- 54
2019-05-27 07:00:00 13 3 Noroeste 10 Sudoeste 0 -- -- 54
2019-05-27 06:00:00 13.6 3 Noroeste 8 Noroeste 0 -- -- 52
2019-05-27 05:00:00 14.6 3 Sudoeste 7 Sudoeste 0 -- -- 47
2019-05-27 04:00:00 15.8 4 Sudoeste 9 Noroeste 0 -- -- 43
2019-05-27 03:00:00 16.6 0 Calma 10 Sudoeste 0 -- -- 41
2019-05-27 02:00:00 17.8 3 Noroeste 14 Norte 0 -- -- 38
2019-05-27 01:00:00 18.7 5 Oeste 9 Noroeste 0 -- -- 37
2019-05-27 00:00:00 20.3 0 Calma 10 Nordeste 0 -- -- 33